Center Lovell, Maine
Current Conditions -  °F | °C
As of 3:54 PM on Tuesday 21 Oct 2014 (Local Time) from KIZG Reporting Station
Light Rain Light Rain  
Wind Chill: 44°   Ceiling: 900
Heat Index: 47°   Visibility: 9mi
Dew Point: 45°   Wind: 7mph
Humidity: 93%   Direction: 340°NNW
Pressure: 30.02"   Gusts: NA
Location:  44.18°N, 70.89°W
Report Text: KIZG 211954Z AUTO 34006KT 9SM -RA OVC009 08/07 A3002 RMK AO2 SLP170 P0000 T00830072
Loading
Personal Weather Stations






























Interactive Weather Map
Tropical Storm Tracking
New forecast layout! Learn more

10-Day Weather Forecast

Advertisements
Track Severe Weather on mobile